createdAt,value
2019-05-18T00:00:15.041Z,83.58
2019-05-18T00:02:46.700Z,83.59
2019-05-18T00:05:18.333Z,83.25
2019-05-18T00:07:49.895Z,83.47
2019-05-18T00:10:21.590Z,83.08
2019-05-18T00:12:53.218Z,82.64
2019-05-18T00:15:24.799Z,83.04
2019-05-18T00:17:56.348Z,83.36
2019-05-18T00:20:27.959Z,83.30
2019-05-18T00:22:59.486Z,83.09
2019-05-18T00:25:31.077Z,82.69
2019-05-18T00:28:02.646Z,82.27
2019-05-18T00:30:35.323Z,82.51
2019-05-18T00:33:07.858Z,81.89
2019-05-18T00:35:39.453Z,81.73
2019-05-18T00:38:11.028Z,82.02
2019-05-18T00:40:42.609Z,82.18
2019-05-18T00:43:14.203Z,82.31
2019-05-18T00:45:45.800Z,82.69
2019-05-18T00:48:18.423Z,82.92
2019-05-18T00:50:50.015Z,82.97
2019-05-18T00:53:21.576Z,83.04
2019-05-18T00:55:53.180Z,83.06
2019-05-18T00:58:24.742Z,83.31
2019-05-18T01:00:56.332Z,83.26
2019-05-18T01:03:27.913Z,83.73
2019-05-18T01:05:59.510Z,84.18
2019-05-18T01:08:31.083Z,83.80
2019-05-18T01:11:02.651Z,83.80
2019-05-18T01:13:34.226Z,83.79
2019-05-18T01:16:05.793Z,83.93
2019-05-18T01:18:37.355Z,83.68
2019-05-18T01:21:08.939Z,84.09
2019-05-18T01:23:40.526Z,83.98
2019-05-18T01:26:12.165Z,83.89
2019-05-18T01:28:43.762Z,83.91
2019-05-18T01:31:15.312Z,84.20
2019-05-18T01:33:46.929Z,84.00
2019-05-18T01:36:18.496Z,83.64
2019-05-18T01:38:50.107Z,84.04
2019-05-18T01:41:21.671Z,84.54
2019-05-18T01:43:53.241Z,84.73
2019-05-18T01:46:24.824Z,84.80
2019-05-18T01:48:56.426Z,84.74
2019-05-18T01:51:28.006Z,84.45
2019-05-18T01:53:59.585Z,84.53
2019-05-18T01:56:31.164Z,84.60
2019-05-18T01:59:02.865Z,84.67
2019-05-18T02:01:34.445Z,84.73
2019-05-18T02:04:06.037Z,84.23
2019-05-18T02:06:37.643Z,84.17
2019-05-18T02:09:10.147Z,83.97
2019-05-18T02:11:43.367Z,83.85
2019-05-18T02:14:14.945Z,83.81
2019-05-18T02:16:46.522Z,83.63
2019-05-18T02:19:18.091Z,84.04
2019-05-18T02:21:49.671Z,84.13
2019-05-18T02:24:21.241Z,84.07
2019-05-18T02:26:52.839Z,84.22
2019-05-18T02:29:24.410Z,84.20
2019-05-18T02:31:56.000Z,84.49
2019-05-18T02:34:27.549Z,84.68
2019-05-18T02:36:59.179Z,84.65
2019-05-18T02:39:30.696Z,84.62
2019-05-18T02:42:02.277Z,84.71
2019-05-18T02:44:33.823Z,84.65
2019-05-18T02:47:05.408Z,84.61
2019-05-18T02:49:36.975Z,84.25
2019-05-18T02:52:08.552Z,84.23
2019-05-18T02:54:40.121Z,84.03
2019-05-18T02:57:11.703Z,84.10
2019-05-18T02:59:43.252Z,84.27
2019-05-18T03:02:14.858Z,84.19
2019-05-18T03:04:46.425Z,84.12
2019-05-18T03:07:18.008Z,83.95
2019-05-18T03:09:49.553Z,84.06
2019-05-18T03:12:22.218Z,84.39
2019-05-18T03:14:53.783Z,84.60
2019-05-18T03:17:26.367Z,84.23
2019-05-18T03:19:57.919Z,83.99
2019-05-18T03:22:29.650Z,84.03
2019-05-18T03:25:01.209Z,84.28
2019-05-18T03:27:32.785Z,84.46
2019-05-18T03:30:04.413Z,84.59
2019-05-18T03:32:35.990Z,84.52
2019-05-18T03:35:07.743Z,84.23
2019-05-18T03:37:39.322Z,84.04
2019-05-18T03:40:11.007Z,84.13
2019-05-18T03:42:42.573Z,84.34
2019-05-18T03:45:14.476Z,84.39
2019-05-18T03:47:46.036Z,84.42
2019-05-18T03:50:17.725Z,84.22
2019-05-18T03:52:49.294Z,84.32
2019-05-18T03:55:20.869Z,84.22
2019-05-18T03:57:52.449Z,84.11
2019-05-18T04:00:24.005Z,83.84
2019-05-18T04:02:55.594Z,83.62
2019-05-18T04:05:27.196Z,83.90
2019-05-18T04:07:58.753Z,84.20
2019-05-18T04:10:30.342Z,84.14
2019-05-18T04:13:01.946Z,83.89
2019-05-18T04:15:33.539Z,83.70
2019-05-18T04:18:05.149Z,83.59
2019-05-18T04:20:36.693Z,83.23
2019-05-18T04:23:08.297Z,83.10
2019-05-18T04:25:43.547Z,83.15
2019-05-18T04:28:13.272Z,83.35
2019-05-18T04:30:44.842Z,83.71
2019-05-18T04:33:16.432Z,83.92
2019-05-18T04:35:48.014Z,84.07
2019-05-18T04:38:19.588Z,83.80
2019-05-18T04:40:52.216Z,83.72
2019-05-18T04:43:23.811Z,83.78
2019-05-18T04:45:55.360Z,83.48
2019-05-18T04:48:26.935Z,83.61
2019-05-18T04:50:58.504Z,83.35
2019-05-18T04:53:31.170Z,83.07
2019-05-18T04:56:02.735Z,83.03
2019-05-18T04:58:34.317Z,83.07
2019-05-18T05:01:05.892Z,83.18
2019-05-18T05:03:37.551Z,82.39
2019-05-18T05:06:09.097Z,81.87
2019-05-18T05:08:40.679Z,82.53
2019-05-18T05:11:12.243Z,82.58
2019-05-18T05:13:43.830Z,82.46
2019-05-18T05:16:15.409Z,82.17
2019-05-18T05:18:47.106Z,81.86
2019-05-18T05:21:18.676Z,81.94
2019-05-18T05:23:50.302Z,82.21
2019-05-18T05:26:21.861Z,82.36
2019-05-18T05:28:53.609Z,81.62
2019-05-18T05:31:25.169Z,80.42
2019-05-18T05:33:56.774Z,79.23
2019-05-18T05:36:28.353Z,77.59
2019-05-18T05:38:59.944Z,77.81
2019-05-18T05:41:31.524Z,77.75
2019-05-18T05:44:04.191Z,76.70
2019-05-18T05:46:37.441Z,75.97
2019-05-18T05:49:09.141Z,76.32
2019-05-18T05:51:40.730Z,77.18
2019-05-18T05:54:13.382Z,78.26
2019-05-18T05:56:44.987Z,78.68
2019-05-18T05:59:16.548Z,78.46
2019-05-18T06:01:48.120Z,77.06
2019-05-18T06:04:19.707Z,77.17
2019-05-18T06:06:51.344Z,76.14
2019-05-18T06:09:22.923Z,75.52
2019-05-18T06:11:54.534Z,75.89
2019-05-18T06:14:26.143Z,75.42
2019-05-18T06:16:57.730Z,75.77
2019-05-18T06:19:29.350Z,76.80
2019-05-18T06:22:00.899Z,76.62
2019-05-18T06:24:32.737Z,77.28
2019-05-18T06:27:04.301Z,77.54
2019-05-18T06:29:35.899Z,77.87
2019-05-18T06:32:07.495Z,78.17
2019-05-18T06:34:39.075Z,78.25
2019-05-18T06:37:10.680Z,78.22
2019-05-18T06:39:42.261Z,78.07
2019-05-18T06:42:13.864Z,77.84
2019-05-18T06:44:45.444Z,78.10
2019-05-18T06:47:17.063Z,78.12
2019-05-18T06:49:48.655Z,77.51
2019-05-18T06:52:20.251Z,77.05
2019-05-18T06:54:52.137Z,77.10
2019-05-18T06:57:25.095Z,76.82
2019-05-18T06:59:56.660Z,76.79
2019-05-18T07:02:28.244Z,76.65
2019-05-18T07:04:59.816Z,75.14
2019-05-18T07:07:31.398Z,74.79
2019-05-18T07:10:02.969Z,73.19
2019-05-18T07:12:34.577Z,71.93
2019-05-18T07:15:07.161Z,71.19
2019-05-18T07:17:38.882Z,71.23
2019-05-18T07:20:11.855Z,70.35
2019-05-18T07:22:43.506Z,70.93
2019-05-18T07:25:15.407Z,68.46
2019-05-18T07:27:46.973Z,69.43
2019-05-18T07:30:18.864Z,66.69
2019-05-18T07:32:50.514Z,67.86
2019-05-18T07:35:22.238Z,63.72
2019-05-18T07:37:53.834Z,62.44
2019-05-18T07:40:25.422Z,63.87
2019-05-18T07:42:57.038Z,64.45
2019-05-18T07:45:29.832Z,63.12
2019-05-18T07:48:01.409Z,62.63
2019-05-18T07:50:33.010Z,63.27
2019-05-18T07:53:04.605Z,62.19
2019-05-18T07:55:36.192Z,61.64
2019-05-18T07:58:09.397Z,61.70
2019-05-18T08:00:41.191Z,60.65
2019-05-18T08:03:12.768Z,63.10
2019-05-18T08:05:44.377Z,62.93
2019-05-18T08:08:16.070Z,63.22
2019-05-18T08:10:47.693Z,61.28
2019-05-18T08:13:19.308Z,62.09
2019-05-18T08:15:58.275Z,61.10
2019-05-18T08:18:29.996Z,62.47
2019-05-18T08:21:01.607Z,58.00
2019-05-18T08:23:33.577Z,58.28
2019-05-18T08:26:05.190Z,61.61
2019-05-18T08:28:36.796Z,58.09
2019-05-18T08:31:08.400Z,60.88
2019-05-18T08:33:39.995Z,60.18
2019-05-18T08:36:11.589Z,61.39
2019-05-18T08:38:43.175Z,61.15
2019-05-18T08:41:14.779Z,60.05
2019-05-18T08:43:46.365Z,60.74
2019-05-18T08:46:18.000Z,58.35
2019-05-18T08:48:49.617Z,59.73
2019-05-18T08:51:21.221Z,57.52
2019-05-18T08:53:52.832Z,60.93
2019-05-18T08:56:24.400Z,60.14
2019-05-18T08:58:56.055Z,60.00
2019-05-18T09:01:27.767Z,58.67
2019-05-18T09:03:59.416Z,58.37
2019-05-18T09:06:31.063Z,62.03
2019-05-18T09:09:02.848Z,60.76
2019-05-18T09:11:34.503Z,58.48
2019-05-18T09:14:06.712Z,59.14
2019-05-18T09:16:39.354Z,59.66
2019-05-18T09:19:10.977Z,58.36
2019-05-18T09:21:42.581Z,59.66
2019-05-18T09:24:14.197Z,59.94
2019-05-18T09:26:45.818Z,59.64
2019-05-18T09:29:17.439Z,60.42
2019-05-18T09:31:49.068Z,63.39
2019-05-18T09:34:20.691Z,57.97
2019-05-18T09:36:52.275Z,62.47
2019-05-18T09:39:23.887Z,60.86
2019-05-18T09:41:55.519Z,59.74
2019-05-18T09:44:27.130Z,60.54
2019-05-18T09:46:58.794Z,61.67
2019-05-18T09:49:30.409Z,59.68
2019-05-18T09:52:02.135Z,58.89
2019-05-18T09:54:34.343Z,59.55
2019-05-18T09:57:06.098Z,58.68
2019-05-18T09:59:37.727Z,58.26
2019-05-18T10:02:09.614Z,58.45
2019-05-18T10:04:41.234Z,59.96
2019-05-18T10:07:12.840Z,59.31
2019-05-18T10:09:44.439Z,55.46
2019-05-18T10:12:16.060Z,56.57
2019-05-18T10:14:47.660Z,53.34
2019-05-18T10:17:19.272Z,55.96
2019-05-18T10:19:50.859Z,54.77
2019-05-18T10:22:22.436Z,54.58
2019-05-18T10:24:54.032Z,54.99
2019-05-18T10:27:25.621Z,53.09
2019-05-18T10:29:57.229Z,50.84
2019-05-18T10:32:29.410Z,54.17
2019-05-18T10:35:01.090Z,53.15
2019-05-18T10:37:33.747Z,53.41
2019-05-18T10:40:06.075Z,53.79
2019-05-18T10:42:37.701Z,54.10
2019-05-18T10:45:10.509Z,56.20
2019-05-18T10:47:42.118Z,54.98
2019-05-18T10:50:13.809Z,57.17
2019-05-18T10:52:46.130Z,54.33
2019-05-18T10:55:17.851Z,52.83
2019-05-18T10:57:49.526Z,52.41
2019-05-18T11:00:21.428Z,53.40
2019-05-18T11:02:53.046Z,53.52
2019-05-18T11:05:26.100Z,52.49
2019-05-18T11:07:57.769Z,53.90
2019-05-18T11:10:29.465Z,55.52
2019-05-18T11:13:01.096Z,53.18
2019-05-18T11:15:32.697Z,50.18
2019-05-18T11:18:04.292Z,50.41
2019-05-18T11:20:35.896Z,50.25
2019-05-18T11:23:07.531Z,48.94
2019-05-18T11:25:39.109Z,52.28
2019-05-18T11:28:10.773Z,52.19
2019-05-18T11:30:42.333Z,49.79
2019-05-18T11:33:13.951Z,52.04
2019-05-18T11:35:45.958Z,50.08
2019-05-18T11:38:18.177Z,48.99
2019-05-18T11:40:50.026Z,49.80
2019-05-18T11:43:21.680Z,49.81
2019-05-18T11:45:53.393Z,50.81
2019-05-18T11:48:25.087Z,50.73
2019-05-18T11:50:56.781Z,50.99
2019-05-18T11:53:28.358Z,50.96
2019-05-18T11:56:00.028Z,51.75
2019-05-18T11:58:31.613Z,53.43
2019-05-18T12:01:03.261Z,52.01
2019-05-18T12:03:34.837Z,51.32
2019-05-18T12:06:06.587Z,50.77
2019-05-18T12:08:38.167Z,52.02
2019-05-18T12:11:09.801Z,52.88
2019-05-18T12:13:41.429Z,53.42
2019-05-18T12:16:13.194Z,53.06
2019-05-18T12:18:44.810Z,52.98
2019-05-18T12:21:16.416Z,53.23
2019-05-18T12:23:48.053Z,53.05
2019-05-18T12:26:22.862Z,52.94
2019-05-18T12:28:54.932Z,53.40
2019-05-18T12:31:26.631Z,54.70
2019-05-18T12:33:58.271Z,55.48
2019-05-18T12:36:29.964Z,56.52
2019-05-18T12:39:01.656Z,56.57
2019-05-18T12:41:33.625Z,54.13
2019-05-18T12:44:05.226Z,54.30
2019-05-18T12:46:36.867Z,55.90
2019-05-18T12:49:08.411Z,53.91
2019-05-18T12:51:40.043Z,55.55
2019-05-18T12:54:11.630Z,54.58
2019-05-18T12:56:43.348Z,54.51
2019-05-18T12:59:14.949Z,55.50
2019-05-18T13:01:46.531Z,54.91
2019-05-18T13:04:18.216Z,55.63
2019-05-18T13:06:49.812Z,55.09
2019-05-18T13:09:23.719Z,55.71
2019-05-18T13:11:54.777Z,56.03
2019-05-18T13:14:26.432Z,57.68
2019-05-18T13:16:59.098Z,56.78
2019-05-18T13:19:30.726Z,56.84
2019-05-18T13:22:02.644Z,55.97
2019-05-18T13:24:44.986Z,58.86
2019-05-18T13:27:07.745Z,58.85
2019-05-18T13:29:39.381Z,57.92
2019-05-18T13:32:11.003Z,56.55
2019-05-18T13:34:42.640Z,56.74
2019-05-18T13:37:14.241Z,56.29
2019-05-18T13:39:45.874Z,55.03
2019-05-18T13:42:17.465Z,54.90
2019-05-18T13:44:49.127Z,55.71
2019-05-18T13:47:20.733Z,55.25
2019-05-18T13:49:52.339Z,57.26
2019-05-18T13:52:23.941Z,54.60
2019-05-18T13:55:03.492Z,56.39
2019-05-18T13:57:28.938Z,52.35
2019-05-18T14:00:00.616Z,54.03
2019-05-18T14:02:32.249Z,54.35
2019-05-18T14:05:03.845Z,54.65
2019-05-18T14:07:35.448Z,55.48
2019-05-18T14:10:07.975Z,57.19
2019-05-18T14:12:39.651Z,59.92
2019-05-18T14:15:13.077Z,60.71
2019-05-18T14:17:44.749Z,61.27
2019-05-18T14:20:16.859Z,62.09
2019-05-18T14:22:48.489Z,62.78
2019-05-18T14:25:20.487Z,63.87
2019-05-18T14:27:52.169Z,64.47
2019-05-18T14:30:24.038Z,65.28
2019-05-18T14:32:55.774Z,65.11
2019-05-18T14:35:27.404Z,66.53
2019-05-18T14:37:59.023Z,67.22
2019-05-18T14:40:30.689Z,66.81
2019-05-18T14:43:02.423Z,67.69
2019-05-18T14:45:33.976Z,68.91
2019-05-18T14:48:05.607Z,68.47
2019-05-18T14:50:37.189Z,71.91
2019-05-18T14:53:08.831Z,72.36
2019-05-18T14:55:40.579Z,68.00
2019-05-18T14:58:12.219Z,66.43
2019-05-18T15:00:43.866Z,68.79
2019-05-18T15:03:15.485Z,66.31
2019-05-18T15:05:47.215Z,69.70
2019-05-18T15:08:18.943Z,68.60
2019-05-18T15:10:50.562Z,67.49
2019-05-18T15:13:22.230Z,66.58
2019-05-18T15:15:53.864Z,68.34
2019-05-18T15:18:25.555Z,67.15
2019-05-18T15:20:58.278Z,64.44
2019-05-18T15:23:30.032Z,65.32
2019-05-18T15:26:01.748Z,64.97
2019-05-18T15:28:33.450Z,64.04
2019-05-18T15:31:05.186Z,61.82
2019-05-18T15:33:36.786Z,61.92
2019-05-18T15:36:08.450Z,61.21
2019-05-18T15:38:40.073Z,61.05
2019-05-18T15:41:11.697Z,62.22
2019-05-18T15:43:43.290Z,62.19
2019-05-18T15:46:15.146Z,61.41
2019-05-18T15:48:46.793Z,62.09
2019-05-18T15:51:18.353Z,62.03
2019-05-18T15:53:49.956Z,62.16
2019-05-18T15:56:21.549Z,63.39
2019-05-18T15:58:53.170Z,64.59
2019-05-18T16:01:24.763Z,65.49
2019-05-18T16:03:56.321Z,66.15
2019-05-18T16:06:27.913Z,63.30
2019-05-18T16:08:59.511Z,63.80
2019-05-18T16:11:31.130Z,63.64
2019-05-18T16:14:03.865Z,64.34
2019-05-18T16:16:35.469Z,64.40
2019-05-18T16:19:07.127Z,63.52
2019-05-18T16:21:39.019Z,63.49
2019-05-18T16:24:10.619Z,63.86
2019-05-18T16:26:42.258Z,64.17
2019-05-18T16:29:13.858Z,65.92
2019-05-18T16:31:45.486Z,65.45
2019-05-18T16:34:17.028Z,65.88
2019-05-18T16:36:49.696Z,65.72
2019-05-18T16:39:21.296Z,66.00
2019-05-18T16:41:52.903Z,65.88
2019-05-18T16:44:24.556Z,66.09
2019-05-18T16:46:56.160Z,65.20
2019-05-18T16:49:27.761Z,65.05
2019-05-18T16:51:59.328Z,64.05
2019-05-18T16:54:30.949Z,65.71
2019-05-18T16:57:02.568Z,66.12
2019-05-18T16:59:34.206Z,64.63
2019-05-18T17:02:06.773Z,65.72
2019-05-18T17:04:38.401Z,65.95
2019-05-18T17:07:10.077Z,65.53
2019-05-18T17:09:41.738Z,65.02
2019-05-18T17:12:13.338Z,65.03
2019-05-18T17:14:44.967Z,65.41
2019-05-18T17:17:16.551Z,65.04
2019-05-18T17:19:48.169Z,65.69
2019-05-18T17:22:19.809Z,65.88
2019-05-18T17:24:51.459Z,65.43
2019-05-18T17:27:23.001Z,65.63
2019-05-18T17:29:54.649Z,65.54
2019-05-18T17:32:26.228Z,65.60
2019-05-18T17:34:57.845Z,66.01
2019-05-18T17:37:29.483Z,65.78
2019-05-18T17:40:01.102Z,65.17
2019-05-18T17:42:32.792Z,64.96
2019-05-18T17:45:04.763Z,65.81
2019-05-18T17:47:36.478Z,65.42
2019-05-18T17:50:08.729Z,65.89
2019-05-18T17:52:40.323Z,66.66
2019-05-18T17:55:16.206Z,67.15
2019-05-18T17:57:46.544Z,67.80
2019-05-18T18:00:18.967Z,68.21
2019-05-18T18:02:50.605Z,68.34
2019-05-18T18:05:22.233Z,69.74
2019-05-18T18:07:55.645Z,70.33
2019-05-18T18:10:28.233Z,68.15
2019-05-18T18:12:59.869Z,67.56
2019-05-18T18:15:31.555Z,71.66
2019-05-18T18:18:03.270Z,73.42
2019-05-18T18:20:34.870Z,73.67
2019-05-18T18:23:06.545Z,73.44
2019-05-18T18:25:38.216Z,73.53
2019-05-18T18:28:09.809Z,73.76
2019-05-18T18:30:41.406Z,70.50
2019-05-18T18:33:13.043Z,70.63
2019-05-18T18:35:44.664Z,71.20
2019-05-18T18:38:16.354Z,70.83
2019-05-18T18:40:47.968Z,69.99
2019-05-18T18:43:20.512Z,69.72
2019-05-18T18:45:52.150Z,69.99
2019-05-18T18:48:26.387Z,70.30
2019-05-18T18:50:57.080Z,70.01
2019-05-18T18:53:28.709Z,70.05
2019-05-18T18:56:00.360Z,70.48
2019-05-18T18:58:31.996Z,70.26
2019-05-18T19:01:03.595Z,70.99
2019-05-18T19:03:35.205Z,71.83
2019-05-18T19:06:06.822Z,72.21
2019-05-18T19:08:38.459Z,71.24
2019-05-18T19:11:29.145Z,70.78
2019-05-18T19:14:00.737Z,70.43
2019-05-18T19:16:32.332Z,70.40
2019-05-18T19:19:03.978Z,70.47
2019-05-18T19:21:35.611Z,71.03
2019-05-18T19:24:07.277Z,71.39
2019-05-18T19:26:38.926Z,72.43
2019-05-18T19:29:10.513Z,71.90
2019-05-18T19:31:42.124Z,72.05
2019-05-18T19:34:13.818Z,72.34
2019-05-18T19:36:45.505Z,72.40
2019-05-18T19:39:18.798Z,72.94
2019-05-18T19:41:50.430Z,72.54
2019-05-18T19:44:23.970Z,72.31
2019-05-18T19:46:55.390Z,72.23
2019-05-18T19:49:26.965Z,72.43
2019-05-18T19:51:58.592Z,72.37
2019-05-18T19:54:30.201Z,71.93
2019-05-18T19:57:01.951Z,72.05
2019-05-18T19:59:33.603Z,71.81
2019-05-18T20:02:05.328Z,72.75
2019-05-18T20:04:36.980Z,72.71
2019-05-18T20:07:08.615Z,71.95
2019-05-18T20:09:40.215Z,71.30
2019-05-18T20:12:11.814Z,71.21
2019-05-18T20:14:43.401Z,70.74
2019-05-18T20:17:15.075Z,70.73
2019-05-18T20:19:46.667Z,71.28
2019-05-18T20:22:18.297Z,71.37
2019-05-18T20:24:49.945Z,71.05
2019-05-18T20:27:21.559Z,70.91
2019-05-18T20:29:53.166Z,71.13
2019-05-18T20:32:24.852Z,71.48
2019-05-18T20:34:56.475Z,71.28
2019-05-18T20:37:28.075Z,71.89
2019-05-18T20:39:59.761Z,71.42
2019-05-18T20:42:31.358Z,70.68
2019-05-18T20:45:02.952Z,71.04
2019-05-18T20:47:36.079Z,70.78
2019-05-18T20:50:08.384Z,70.78
2019-05-18T20:52:40.027Z,71.71
2019-05-18T20:55:11.739Z,71.24
2019-05-18T20:57:43.393Z,71.97
2019-05-18T21:00:15.915Z,72.58
2019-05-18T21:02:47.594Z,72.72
2019-05-18T21:05:19.205Z,73.10
2019-05-18T21:07:50.951Z,73.03
2019-05-18T21:10:22.565Z,72.88
2019-05-18T21:12:54.184Z,72.83
2019-05-18T21:15:26.292Z,73.05
2019-05-18T21:17:57.935Z,72.91
2019-05-18T21:20:30.605Z,72.72
2019-05-18T21:23:02.260Z,73.40
2019-05-18T21:25:34.433Z,73.83
2019-05-18T21:28:06.055Z,74.18
2019-05-18T21:30:37.638Z,74.62
2019-05-18T21:33:09.275Z,74.79
2019-05-18T21:35:40.869Z,74.83
2019-05-18T21:38:12.492Z,74.85
2019-05-18T21:40:44.220Z,74.46
2019-05-18T21:43:15.844Z,74.65
2019-05-18T21:45:47.429Z,74.22
2019-05-18T21:48:19.021Z,73.98
2019-05-18T21:50:50.599Z,74.57
2019-05-18T21:53:22.297Z,74.67
2019-05-18T21:55:53.897Z,75.11
2019-05-18T21:58:25.549Z,75.31
2019-05-18T22:00:57.225Z,75.46
2019-05-18T22:03:28.982Z,75.84
2019-05-18T22:06:00.557Z,75.73
2019-05-18T22:08:32.328Z,75.55
2019-05-18T22:11:03.930Z,75.84
2019-05-18T22:13:35.757Z,76.19
2019-05-18T22:16:07.355Z,76.27
2019-05-18T22:18:39.009Z,76.39
2019-05-18T22:21:10.998Z,76.58
2019-05-18T22:23:42.618Z,76.76
2019-05-18T22:26:14.253Z,76.88
2019-05-18T22:28:45.876Z,76.98
2019-05-18T22:31:19.589Z,77.17
2019-05-18T22:33:50.831Z,77.08
2019-05-18T22:36:22.474Z,77.11
2019-05-18T22:38:54.081Z,76.92
2019-05-18T22:41:25.686Z,77.04
2019-05-18T22:43:57.287Z,77.33
2019-05-18T22:46:28.902Z,77.87
2019-05-18T22:49:00.519Z,77.98
2019-05-18T22:51:32.158Z,78.58
2019-05-18T22:54:03.790Z,78.81
2019-05-18T22:56:35.409Z,79.18
2019-05-18T22:59:07.005Z,78.97
2019-05-18T23:01:38.637Z,78.88
2019-05-18T23:04:11.547Z,78.29
2019-05-18T23:06:43.140Z,77.64
2019-05-18T23:09:14.835Z,78.07
2019-05-18T23:11:46.536Z,78.65
2019-05-18T23:14:18.127Z,78.76
2019-05-18T23:16:49.718Z,78.96
2019-05-18T23:19:21.319Z,78.81
2019-05-18T23:21:52.912Z,78.88
2019-05-18T23:24:24.488Z,79.08
2019-05-18T23:26:56.101Z,78.81
2019-05-18T23:29:28.731Z,78.97
2019-05-18T23:32:00.360Z,79.41
2019-05-18T23:34:31.979Z,79.71
2019-05-18T23:37:03.555Z,79.43
2019-05-18T23:39:35.228Z,79.38
2019-05-18T23:42:06.835Z,79.77
2019-05-18T23:44:38.458Z,79.40
2019-05-18T23:47:10.033Z,79.63
2019-05-18T23:49:41.665Z,79.63
2019-05-18T23:52:13.221Z,79.50
2019-05-18T23:54:44.826Z,79.85
2019-05-18T23:57:16.504Z,79.69
2019-05-18T23:59:48.123Z,79.40
